createdAt,value
2023-03-29T00:02:04.659Z,77.60
2023-03-29T00:05:10.573Z,79.79
2023-03-29T00:08:14.602Z,80.28
2023-03-29T00:11:17.631Z,79.42
2023-03-29T00:14:20.248Z,80.02
2023-03-29T00:17:22.865Z,80.39
2023-03-29T00:20:27.026Z,82.95
2023-03-29T00:23:29.638Z,82.25
2023-03-29T00:26:32.229Z,83.57
2023-03-29T00:29:35.075Z,81.64
2023-03-29T00:32:37.920Z,80.59
2023-03-29T00:35:42.418Z,86.11
2023-03-29T00:38:45.367Z,84.37
2023-03-29T00:41:48.117Z,88.16
2023-03-29T00:45:00.064Z,89.14
2023-03-29T00:48:06.359Z,90.86
2023-03-29T00:51:13.155Z,92.06
2023-03-29T00:54:18.644Z,93.67
2023-03-29T00:57:25.239Z,93.46
2023-03-29T01:00:33.137Z,94.11
2023-03-29T01:03:46.140Z,93.92
2023-03-29T01:06:57.894Z,93.01
2023-03-29T01:10:06.422Z,92.50
2023-03-29T01:13:12.368Z,91.94
2023-03-29T01:16:18.763Z,91.72
2023-03-29T01:19:26.390Z,93.00
2023-03-29T01:22:39.114Z,92.46
2023-03-29T01:25:48.926Z,91.96
2023-03-29T01:28:59.900Z,92.62
2023-03-29T01:32:06.025Z,92.38
2023-03-29T01:35:14.298Z,91.74
2023-03-29T01:38:22.680Z,90.65
2023-03-29T01:41:35.475Z,89.10
2023-03-29T01:44:48.555Z,89.30
2023-03-29T01:47:57.631Z,88.96
2023-03-29T01:51:07.029Z,88.08
2023-03-29T01:54:15.748Z,86.42
2023-03-29T01:57:21.620Z,85.96
2023-03-29T02:00:29.481Z,87.33
2023-03-29T02:03:34.341Z,86.46
2023-03-29T02:06:39.627Z,86.76
2023-03-29T02:09:44.595Z,85.89
2023-03-29T02:12:47.702Z,85.15
2023-03-29T02:15:51.647Z,85.28
2023-03-29T02:18:57.840Z,85.56
2023-03-29T02:22:05.777Z,85.50
2023-03-29T02:25:09.592Z,86.31
2023-03-29T02:28:13.010Z,85.97
2023-03-29T02:31:24.789Z,86.20
2023-03-29T02:34:30.731Z,85.85
2023-03-29T02:37:36.306Z,85.29
2023-03-29T02:40:41.094Z,85.51
2023-03-29T02:43:46.081Z,84.80
2023-03-29T02:46:51.982Z,85.64
2023-03-29T02:49:55.265Z,85.85
2023-03-29T02:53:01.701Z,85.70
2023-03-29T02:56:04.662Z,84.92
2023-03-29T02:59:07.237Z,84.44
2023-03-29T03:02:11.695Z,85.15
2023-03-29T03:05:14.392Z,84.42
2023-03-29T03:08:16.990Z,84.09
2023-03-29T03:11:19.570Z,82.31
2023-03-29T03:14:23.196Z,82.71
2023-03-29T03:17:27.186Z,81.58
2023-03-29T03:20:31.027Z,83.61
2023-03-29T03:23:33.652Z,83.34
2023-03-29T03:26:38.146Z,83.52
2023-03-29T03:29:41.482Z,83.42
2023-03-29T03:32:45.536Z,83.24
2023-03-29T03:35:48.199Z,81.80
2023-03-29T03:38:50.834Z,81.69
2023-03-29T03:41:53.415Z,81.83
2023-03-29T03:44:56.489Z,81.25
2023-03-29T03:48:00.603Z,80.68
2023-03-29T03:51:03.541Z,80.86
2023-03-29T03:54:06.874Z,79.57
2023-03-29T03:57:09.497Z,81.71
2023-03-29T04:00:18.907Z,82.05
2023-03-29T04:03:24.001Z,81.14
2023-03-29T04:06:30.430Z,82.39
2023-03-29T04:09:34.213Z,80.96
2023-03-29T04:12:37.173Z,80.89
2023-03-29T04:15:39.857Z,80.26
2023-03-29T04:18:43.922Z,81.14
2023-03-29T04:21:49.093Z,79.95
2023-03-29T04:24:51.703Z,80.98
2023-03-29T04:27:54.306Z,81.78
2023-03-29T04:30:56.932Z,81.75
2023-03-29T04:34:01.107Z,81.10
2023-03-29T04:37:09.920Z,81.71
2023-03-29T04:40:14.963Z,82.00
2023-03-29T04:43:17.591Z,80.25
2023-03-29T04:46:20.238Z,79.85
2023-03-29T04:49:26.007Z,81.69
2023-03-29T04:52:32.899Z,81.90
2023-03-29T04:55:35.594Z,81.19
2023-03-29T04:58:38.185Z,81.17
2023-03-29T05:01:40.800Z,81.19
2023-03-29T05:04:44.872Z,82.35
2023-03-29T05:07:47.878Z,82.58
2023-03-29T05:10:50.850Z,82.20
2023-03-29T05:13:55.540Z,81.93
2023-03-29T05:16:58.610Z,82.84
2023-03-29T05:20:09.050Z,82.35
2023-03-29T05:23:12.476Z,82.82
2023-03-29T05:26:15.431Z,83.73
2023-03-29T05:29:18.379Z,83.41
2023-03-29T05:32:20.967Z,84.75
2023-03-29T05:35:26.205Z,83.86
2023-03-29T05:38:29.704Z,84.90
2023-03-29T05:41:32.296Z,85.09
2023-03-29T05:44:35.099Z,85.08
2023-03-29T05:47:37.753Z,86.16
2023-03-29T05:50:42.790Z,85.10
2023-03-29T05:53:46.213Z,85.82
2023-03-29T05:56:48.828Z,84.72
2023-03-29T05:59:51.444Z,85.33
2023-03-29T06:02:59.271Z,84.09
2023-03-29T06:06:08.806Z,85.56
2023-03-29T06:09:11.547Z,85.04
2023-03-29T06:12:14.162Z,85.36
2023-03-29T06:15:17.282Z,86.69
2023-03-29T06:18:20.103Z,86.15
2023-03-29T06:21:26.477Z,85.21
2023-03-29T06:24:29.081Z,84.82
2023-03-29T06:27:31.878Z,85.80
2023-03-29T06:30:34.489Z,86.67
2023-03-29T06:33:38.176Z,86.36
2023-03-29T06:36:42.286Z,85.93
2023-03-29T06:39:44.987Z,87.13
2023-03-29T06:42:47.920Z,87.98
2023-03-29T06:45:50.530Z,86.75
2023-03-29T06:48:53.329Z,88.02
2023-03-29T06:51:57.966Z,88.64
2023-03-29T06:55:01.692Z,87.33
2023-03-29T06:58:04.380Z,87.43
2023-03-29T07:01:07.619Z,86.72
2023-03-29T07:04:10.256Z,87.06
2023-03-29T07:07:20.099Z,88.10
2023-03-29T07:10:23.912Z,89.97
2023-03-29T07:13:27.589Z,88.87
2023-03-29T07:16:30.264Z,91.19
2023-03-29T07:19:33.159Z,92.04
2023-03-29T07:22:37.406Z,91.60
2023-03-29T07:25:40.982Z,91.22
2023-03-29T07:28:43.651Z,90.77
2023-03-29T07:31:46.241Z,89.73
2023-03-29T07:34:49.301Z,89.33
2023-03-29T07:37:54.892Z,88.79
2023-03-29T07:40:57.657Z,86.77
2023-03-29T07:44:04.911Z,87.96
2023-03-29T07:47:07.488Z,88.83
2023-03-29T07:50:11.111Z,88.12
2023-03-29T07:53:15.829Z,87.54
2023-03-29T07:56:18.746Z,87.31
2023-03-29T07:59:21.564Z,85.69
2023-03-29T08:02:24.196Z,86.43
2023-03-29T08:05:40.231Z,85.52
2023-03-29T08:08:45.206Z,86.45
2023-03-29T08:11:47.792Z,85.34
2023-03-29T08:14:50.425Z,86.69
2023-03-29T08:17:53.035Z,85.73
2023-03-29T08:20:55.661Z,85.93
2023-03-29T08:23:59.693Z,87.86
2023-03-29T08:27:02.279Z,86.19
2023-03-29T08:30:06.532Z,87.29
2023-03-29T08:33:09.158Z,86.96
2023-03-29T08:36:12.378Z,86.95
2023-03-29T08:39:16.894Z,84.86
2023-03-29T08:42:37.743Z,83.66
2023-03-29T08:45:52.065Z,86.83
2023-03-29T08:49:00.317Z,87.50
2023-03-29T08:52:07.393Z,87.10
2023-03-29T08:55:27.969Z,85.23
2023-03-29T08:58:34.571Z,85.81
2023-03-29T09:01:38.241Z,86.30
2023-03-29T09:04:42.429Z,85.88
2023-03-29T09:07:45.107Z,85.67
2023-03-29T09:10:59.421Z,86.41
2023-03-29T09:14:20.326Z,86.03
2023-03-29T09:17:35.799Z,83.81
2023-03-29T09:20:48.681Z,85.79
2023-03-29T09:24:16.508Z,85.94
2023-03-29T09:27:27.614Z,85.66
2023-03-29T09:30:36.334Z,85.29
2023-03-29T09:33:43.548Z,84.26
2023-03-29T09:36:52.696Z,83.52
2023-03-29T09:39:57.556Z,83.39
2023-03-29T09:43:04.475Z,83.32
2023-03-29T09:46:15.948Z,83.70
2023-03-29T09:49:23.633Z,80.27
2023-03-29T09:52:26.337Z,83.11
2023-03-29T09:55:32.237Z,80.84
2023-03-29T09:58:37.684Z,81.65
2023-03-29T10:01:42.475Z,77.91
2023-03-29T10:04:45.125Z,80.14
2023-03-29T10:07:51.644Z,81.19
2023-03-29T10:10:54.755Z,80.87
2023-03-29T10:14:03.759Z,80.21
2023-03-29T10:17:11.980Z,80.85
2023-03-29T10:20:18.305Z,81.85
2023-03-29T10:23:21.148Z,80.82
2023-03-29T10:26:28.362Z,80.37
2023-03-29T10:29:39.704Z,77.87
2023-03-29T10:32:42.678Z,78.64
2023-03-29T10:35:45.809Z,78.71
2023-03-29T10:38:48.836Z,79.27
2023-03-29T10:41:53.087Z,80.10
2023-03-29T10:44:59.445Z,81.61
2023-03-29T10:48:06.783Z,82.76
2023-03-29T10:51:09.419Z,82.77
2023-03-29T10:54:14.670Z,84.21
2023-03-29T10:57:27.971Z,85.01
2023-03-29T11:00:38.195Z,84.29
2023-03-29T11:03:56.189Z,84.76
2023-03-29T11:07:19.936Z,83.66
2023-03-29T11:10:38.369Z,85.70
2023-03-29T11:13:49.885Z,85.20
2023-03-29T11:17:07.508Z,83.82
2023-03-29T11:20:23.944Z,85.73
2023-03-29T11:23:40.286Z,81.07
2023-03-29T11:26:56.829Z,82.68
2023-03-29T11:30:10.008Z,84.97
2023-03-29T11:33:28.830Z,84.40
2023-03-29T11:36:44.475Z,86.01
2023-03-29T11:39:58.904Z,86.73
2023-03-29T11:43:05.548Z,87.19
2023-03-29T11:46:13.032Z,88.29
2023-03-29T11:49:23.225Z,87.46
2023-03-29T11:52:31.113Z,86.76
2023-03-29T11:55:38.097Z,88.03
2023-03-29T11:58:45.708Z,89.43
2023-03-29T12:01:53.623Z,89.35
2023-03-29T12:05:02.254Z,90.16
2023-03-29T12:08:08.891Z,90.07
2023-03-29T12:11:17.638Z,88.97
2023-03-29T12:14:28.089Z,90.98
2023-03-29T12:17:35.245Z,91.29
2023-03-29T12:20:42.070Z,90.43
2023-03-29T12:23:46.360Z,90.93
2023-03-29T12:27:08.308Z,90.86
2023-03-29T12:30:30.810Z,90.77
2023-03-29T12:34:10.432Z,90.82
2023-03-29T12:37:33.300Z,90.56
2023-03-29T12:40:43.158Z,88.64
2023-03-29T12:43:47.144Z,88.52
2023-03-29T12:46:53.051Z,90.06
2023-03-29T12:49:57.992Z,90.67
2023-03-29T12:53:06.893Z,91.05
2023-03-29T12:56:13.816Z,90.97
2023-03-29T12:59:27.292Z,91.28
2023-03-29T13:02:38.288Z,90.72
2023-03-29T13:05:41.951Z,90.34
2023-03-29T13:08:46.061Z,90.93
2023-03-29T13:11:53.592Z,89.52
2023-03-29T13:14:58.909Z,91.66
2023-03-29T13:18:17.352Z,91.49
2023-03-29T13:21:30.257Z,91.46
2023-03-29T13:24:49.790Z,91.27
2023-03-29T13:27:57.740Z,90.04
2023-03-29T13:31:05.275Z,89.45
2023-03-29T13:34:22.326Z,90.24
2023-03-29T13:37:34.681Z,90.78
2023-03-29T13:40:48.013Z,89.43
2023-03-29T13:43:54.656Z,90.33
2023-03-29T13:47:06.520Z,88.72
2023-03-29T13:50:17.792Z,89.93
2023-03-29T13:53:28.460Z,88.51
2023-03-29T13:56:39.398Z,89.22
2023-03-29T13:59:50.236Z,89.69
2023-03-29T14:02:56.247Z,90.90
2023-03-29T14:06:01.400Z,91.16
2023-03-29T14:09:08.694Z,90.87
2023-03-29T14:12:15.668Z,90.02
2023-03-29T14:15:23.707Z,87.62
2023-03-29T14:18:29.424Z,87.66
2023-03-29T14:21:32.301Z,87.25
2023-03-29T14:24:39.422Z,83.79
2023-03-29T14:27:43.873Z,82.49
2023-03-29T14:30:47.911Z,81.32
2023-03-29T14:33:53.521Z,82.99
2023-03-29T14:36:56.544Z,81.75
2023-03-29T14:39:59.949Z,82.37
2023-03-29T14:43:08.452Z,82.69
2023-03-29T14:46:12.993Z,84.22
2023-03-29T14:49:17.522Z,87.53
2023-03-29T14:52:20.949Z,86.75
2023-03-29T14:55:24.834Z,87.28
2023-03-29T14:58:32.717Z,89.11
2023-03-29T15:01:44.968Z,91.99
2023-03-29T15:04:57.139Z,93.78
2023-03-29T15:08:00.014Z,96.56
2023-03-29T15:11:03.853Z,95.92
2023-03-29T15:14:10.125Z,93.99
2023-03-29T15:17:36.288Z,95.36
2023-03-29T15:20:51.309Z,97.03
2023-03-29T15:23:56.852Z,99.60
2023-03-29T15:27:03.203Z,100.00
2023-03-29T15:30:14.862Z,100.00
2023-03-29T15:33:21.348Z,100.00
2023-03-29T15:36:24.062Z,100.00
2023-03-29T15:39:28.599Z,100.00
2023-03-29T15:42:31.428Z,99.47
2023-03-29T15:45:36.060Z,98.82
2023-03-29T15:48:38.813Z,98.54
2023-03-29T15:51:42.240Z,98.29
2023-03-29T15:54:45.054Z,98.83
2023-03-29T15:57:49.655Z,98.08
2023-03-29T16:00:56.638Z,98.29
2023-03-29T16:03:59.277Z,98.21
2023-03-29T16:07:02.148Z,97.10
2023-03-29T16:10:05.102Z,98.33
2023-03-29T16:13:08.163Z,99.45
2023-03-29T16:16:12.586Z,98.14
2023-03-29T16:19:15.411Z,96.53
2023-03-29T16:22:17.991Z,98.37
2023-03-29T16:25:23.669Z,96.48
2023-03-29T16:28:26.460Z,96.71
2023-03-29T16:31:30.400Z,95.04
2023-03-29T16:34:33.012Z,95.97
2023-03-29T16:37:35.639Z,98.91
2023-03-29T16:40:38.489Z,98.56
2023-03-29T16:43:41.076Z,98.68
2023-03-29T16:46:45.528Z,98.55
2023-03-29T16:49:48.628Z,97.54
2023-03-29T16:52:52.561Z,98.98
2023-03-29T16:55:55.273Z,99.05
2023-03-29T16:58:57.846Z,99.00
2023-03-29T17:02:01.835Z,98.23
2023-03-29T17:05:04.662Z,98.40
2023-03-29T17:08:08.903Z,98.68
2023-03-29T17:11:11.789Z,98.57
2023-03-29T17:14:14.461Z,99.01
2023-03-29T17:17:18.383Z,99.40
2023-03-29T17:20:21.012Z,99.14
2023-03-29T17:23:24.257Z,99.91
2023-03-29T17:26:27.014Z,99.92
2023-03-29T17:29:29.601Z,99.23
2023-03-29T17:32:33.729Z,99.17
2023-03-29T17:35:36.411Z,97.95
2023-03-29T17:38:39.023Z,99.23
2023-03-29T17:41:42.017Z,99.00
2023-03-29T17:44:44.608Z,99.90
2023-03-29T17:47:48.555Z,99.52
2023-03-29T17:50:51.349Z,99.34
2023-03-29T17:53:54.738Z,98.44
2023-03-29T17:56:57.432Z,99.50
2023-03-29T18:00:00.211Z,100.00
2023-03-29T18:03:04.319Z,99.13
2023-03-29T18:06:07.614Z,98.64
2023-03-29T18:09:10.610Z,99.55
2023-03-29T18:12:13.258Z,99.93
2023-03-29T18:15:16.186Z,99.77
2023-03-29T18:18:20.133Z,99.51
2023-03-29T18:21:22.803Z,99.61
2023-03-29T18:24:25.519Z,99.84
2023-03-29T18:27:28.098Z,99.63
2023-03-29T18:30:30.800Z,100.00
2023-03-29T18:33:36.085Z,100.00
2023-03-29T18:36:38.729Z,100.00
2023-03-29T18:39:42.970Z,100.00
2023-03-29T18:42:45.570Z,100.00
2023-03-29T18:45:48.330Z,100.00
2023-03-29T18:48:53.382Z,100.00
2023-03-29T18:51:56.711Z,100.00
2023-03-29T18:54:59.303Z,100.00
2023-03-29T18:58:01.886Z,100.00
2023-03-29T19:01:06.424Z,100.00
2023-03-29T19:04:10.658Z,100.00
2023-03-29T19:07:13.370Z,100.00
2023-03-29T19:10:16.016Z,100.00
2023-03-29T19:13:19.117Z,100.00
2023-03-29T19:16:22.099Z,100.00
2023-03-29T19:19:27.120Z,100.00
2023-03-29T19:22:29.807Z,100.00
2023-03-29T19:25:33.107Z,100.00
2023-03-29T19:28:36.451Z,100.00
2023-03-29T19:31:39.126Z,100.00
2023-03-29T19:34:43.147Z,100.00
2023-03-29T19:37:45.847Z,100.00
2023-03-29T19:40:49.081Z,100.00
2023-03-29T19:43:51.669Z,100.00
2023-03-29T19:46:54.503Z,100.00
2023-03-29T19:49:59.476Z,100.00
2023-03-29T19:53:02.035Z,100.00
2023-03-29T19:56:06.323Z,100.00
2023-03-29T19:59:10.939Z,100.00
2023-03-29T20:02:13.943Z,100.00
2023-03-29T20:05:18.147Z,100.00
2023-03-29T20:08:20.910Z,100.00
2023-03-29T20:11:24.147Z,100.00
2023-03-29T20:14:26.820Z,100.00
2023-03-29T20:17:29.762Z,100.00
2023-03-29T20:20:35.557Z,100.00
2023-03-29T20:23:38.757Z,100.00
2023-03-29T20:26:41.377Z,100.00
2023-03-29T20:29:43.967Z,100.00
2023-03-29T20:32:46.729Z,100.00
2023-03-29T20:35:50.880Z,100.00
2023-03-29T20:38:55.873Z,100.00
2023-03-29T20:41:58.965Z,100.00
2023-03-29T20:45:01.898Z,100.00
2023-03-29T20:48:04.691Z,100.00
2023-03-29T20:51:10.063Z,100.00
2023-03-29T20:54:12.654Z,100.00
2023-03-29T20:57:17.525Z,100.00
2023-03-29T21:00:20.733Z,100.00
2023-03-29T21:03:23.508Z,100.00
2023-03-29T21:06:28.102Z,100.00
2023-03-29T21:09:31.014Z,100.00
2023-03-29T21:12:33.675Z,100.00
2023-03-29T21:15:36.756Z,100.00
2023-03-29T21:18:41.627Z,100.00
2023-03-29T21:21:47.398Z,100.00
2023-03-29T21:24:50.002Z,100.00
2023-03-29T21:27:52.589Z,100.00
2023-03-29T21:30:55.217Z,100.00
2023-03-29T21:33:57.946Z,100.00
2023-03-29T21:37:01.886Z,100.00
2023-03-29T21:40:07.152Z,100.00
2023-03-29T21:43:10.378Z,100.00
2023-03-29T21:46:13.527Z,100.00
2023-03-29T21:49:16.149Z,100.00
2023-03-29T21:52:20.209Z,100.00
2023-03-29T21:55:22.799Z,100.00
2023-03-29T21:58:25.380Z,100.00
2023-03-29T22:01:28.293Z,100.00
2023-03-29T22:04:36.907Z,100.00
2023-03-29T22:07:41.657Z,100.00
2023-03-29T22:10:44.251Z,100.00
2023-03-29T22:13:47.527Z,100.00
2023-03-29T22:16:50.155Z,100.00
2023-03-29T22:19:52.955Z,100.00
2023-03-29T22:22:56.950Z,100.00
2023-03-29T22:25:59.571Z,100.00
2023-03-29T22:29:02.164Z,100.00
2023-03-29T22:32:04.977Z,100.00
2023-03-29T22:35:08.228Z,100.00
2023-03-29T22:38:12.157Z,100.00
2023-03-29T22:41:15.729Z,100.00
2023-03-29T22:44:18.348Z,100.00
2023-03-29T22:47:21.131Z,100.00
2023-03-29T22:50:23.732Z,100.00
2023-03-29T22:53:28.087Z,100.00
2023-03-29T22:56:30.989Z,100.00
2023-03-29T22:59:33.549Z,100.00
2023-03-29T23:02:36.491Z,100.00
2023-03-29T23:05:39.135Z,100.00
2023-03-29T23:08:43.269Z,100.00
2023-03-29T23:11:45.864Z,100.00
2023-03-29T23:14:48.435Z,100.00
2023-03-29T23:17:51.023Z,100.00
2023-03-29T23:20:56.469Z,100.00
2023-03-29T23:24:00.528Z,100.00
2023-03-29T23:27:04.770Z,100.00
2023-03-29T23:30:08.822Z,100.00
2023-03-29T23:33:11.633Z,100.00
2023-03-29T23:36:17.172Z,100.00
2023-03-29T23:39:21.095Z,100.00
2023-03-29T23:42:23.695Z,100.00
2023-03-29T23:45:27.753Z,100.00
2023-03-29T23:48:31.540Z,100.00
2023-03-29T23:51:35.001Z,100.00
2023-03-29T23:54:38.995Z,100.00
2023-03-29T23:57:42.016Z,100.00
